createdAt,value
2019-02-19T00:00:00.367Z,94.88
2019-02-19T00:06:26.188Z,95.66
2019-02-19T00:15:57.061Z,96.08
2019-02-19T00:22:20.862Z,96.09
2019-02-19T00:28:59.811Z,96.75
2019-02-19T00:35:23.617Z,96.96
2019-02-19T00:41:51.227Z,96.62
2019-02-19T00:48:30.402Z,96.96
2019-02-19T00:54:58.910Z,97.43
2019-02-19T01:01:25.993Z,97.65
2019-02-19T01:07:16.198Z,97.72
2019-02-19T01:17:31.639Z,97.91
2019-02-19T01:24:12.611Z,98.18
2019-02-19T01:30:41.464Z,98.30
2019-02-19T01:37:09.301Z,98.88
2019-02-19T01:43:46.233Z,98.84
2019-02-19T01:50:13.850Z,99.18
2019-02-19T01:56:40.901Z,99.54
2019-02-19T02:03:06.718Z,99.81
2019-02-19T02:09:08.880Z,99.91
2019-02-19T02:19:13.049Z,99.61
2019-02-19T02:25:42.144Z,99.74
2019-02-19T02:32:09.674Z,100.00
2019-02-19T02:38:52.969Z,100.00
2019-02-19T02:45:16.516Z,100.00
2019-02-19T02:51:42.369Z,100.00
2019-02-19T02:58:15.185Z,100.00
2019-02-19T03:04:52.419Z,100.00
2019-02-19T03:10:43.891Z,100.00
2019-02-19T03:20:48.884Z,100.00
2019-02-19T03:26:39.353Z,100.00
2019-02-19T03:32:54.758Z,100.00
2019-02-19T03:39:36.043Z,100.00
2019-02-19T03:46:01.863Z,100.00
2019-02-19T03:52:27.465Z,100.00
2019-02-19T03:59:06.417Z,100.00
2019-02-19T04:05:33.460Z,100.00
2019-02-19T04:11:59.283Z,100.00
2019-02-19T04:22:12.120Z,100.00
2019-02-19T04:28:37.970Z,100.00
2019-02-19T04:35:14.871Z,100.00
2019-02-19T04:41:40.722Z,100.00
2019-02-19T04:48:04.537Z,100.00
2019-02-19T04:54:44.684Z,100.00
2019-02-19T05:01:10.150Z,100.00
2019-02-19T05:07:40.359Z,100.00
2019-02-19T05:14:05.947Z,100.00
2019-02-19T05:24:07.129Z,100.00
2019-02-19T05:30:44.062Z,100.00
2019-02-19T05:37:09.885Z,100.00
2019-02-19T05:43:41.762Z,100.00
2019-02-19T05:50:19.703Z,100.00
2019-02-19T05:56:49.273Z,100.00
2019-02-19T06:03:15.382Z,100.00
2019-02-19T06:09:17.969Z,100.00
2019-02-19T06:15:54.895Z,100.00
2019-02-19T06:26:07.987Z,100.00
2019-02-19T06:32:35.606Z,100.00
2019-02-19T06:39:02.642Z,100.00
2019-02-19T06:49:28.843Z,100.00
2019-02-19T06:56:05.771Z,100.00
2019-02-19T07:02:54.821Z,100.00
2019-02-19T07:08:44.066Z,100.00
2019-02-19T07:15:20.979Z,100.00
2019-02-19T07:21:44.777Z,100.00
2019-02-19T07:27:58.711Z,100.00
2019-02-19T07:34:26.551Z,100.00
2019-02-19T07:41:05.502Z,100.00
2019-02-19T07:47:31.040Z,100.00
2019-02-19T07:53:56.904Z,100.00
2019-02-19T08:00:36.094Z,100.00
2019-02-19T08:06:59.649Z,100.00
2019-02-19T08:13:25.502Z,100.00
2019-02-19T08:19:52.544Z,100.00
2019-02-19T08:30:01.262Z,100.00
2019-02-19T08:36:40.523Z,100.00
2019-02-19T08:43:06.343Z,100.00
2019-02-19T08:49:33.961Z,100.00
2019-02-19T08:56:12.916Z,100.00
2019-02-19T09:02:41.635Z,100.00
2019-02-19T09:08:45.367Z,100.00
2019-02-19T09:15:12.417Z,100.00
2019-02-19T09:21:53.054Z,100.00
2019-02-19T09:31:56.359Z,100.00
2019-02-19T09:38:25.939Z,100.00
2019-02-19T09:44:40.718Z,100.00
2019-02-19T09:51:17.627Z,100.00
2019-02-19T09:57:43.479Z,100.00
2019-02-19T10:04:10.511Z,100.00
2019-02-19T10:10:38.041Z,100.00
2019-02-19T10:17:17.000Z,100.00
2019-02-19T10:23:43.121Z,100.00
2019-02-19T10:33:46.091Z,100.00
2019-02-19T10:40:15.761Z,100.00
2019-02-19T10:46:18.542Z,100.00
2019-02-19T10:52:46.136Z,100.00
2019-02-19T10:59:11.983Z,100.00
2019-02-19T11:05:40.703Z,100.00
2019-02-19T11:12:19.666Z,100.00
2019-02-19T11:18:45.827Z,100.00
2019-02-19T11:25:13.660Z,100.00
2019-02-19T11:34:41.291Z,100.00
2019-02-19T11:41:07.103Z,100.00
2019-02-19T11:47:46.749Z,100.00
2019-02-19T11:54:10.859Z,100.00
2019-02-19T12:00:42.742Z,100.00
2019-02-19T12:07:22.699Z,100.00
2019-02-19T12:13:48.524Z,100.00
2019-02-19T12:20:16.360Z,98.18
2019-02-19T12:26:18.951Z,95.56
2019-02-19T12:36:31.751Z,89.37
2019-02-19T12:42:57.604Z,89.58
2019-02-19T12:49:30.423Z,90.93
2019-02-19T12:55:56.550Z,92.86
2019-02-19T13:02:37.523Z,91.64
2019-02-19T13:09:03.120Z,87.12
2019-02-19T13:15:29.789Z,89.71
2019-02-19T13:22:10.139Z,88.32
2019-02-19T13:28:34.940Z,87.33
2019-02-19T13:38:49.821Z,88.49
2019-02-19T13:45:16.856Z,88.60
2019-02-19T13:51:42.682Z,87.59
2019-02-19T13:58:19.612Z,85.92
2019-02-19T14:04:47.158Z,84.31
2019-02-19T14:11:13.272Z,84.33
2019-02-19T14:18:15.531Z,82.89
2019-02-19T14:25:14.600Z,82.41
2019-02-19T14:31:53.287Z,79.55
2019-02-19T14:42:30.640Z,75.09
2019-02-19T14:49:09.600Z,75.09
2019-02-19T14:55:52.802Z,75.03
2019-02-19T15:02:11.135Z,76.03
2019-02-19T15:09:06.465Z,75.12
2019-02-19T15:12:02.188Z,76.39
2019-02-19T15:18:54.480Z,75.60
2019-02-19T15:25:53.281Z,74.24
2019-02-19T15:32:47.739Z,74.25
2019-02-19T15:39:31.675Z,72.80
2019-02-19T15:45:37.354Z,72.50
2019-02-19T15:52:16.300Z,72.98
2019-02-19T15:58:54.969Z,72.79
2019-02-19T16:05:38.012Z,73.89
2019-02-19T16:12:25.983Z,73.13
2019-02-19T16:19:35.249Z,75.86
2019-02-19T16:26:16.258Z,75.80
2019-02-19T16:32:50.408Z,78.67
2019-02-19T16:39:47.533Z,80.73
2019-02-19T16:46:40.621Z,81.19
2019-02-19T16:53:23.220Z,83.06
2019-02-19T16:56:33.499Z,83.89
2019-02-19T17:03:32.657Z,84.49
2019-02-19T17:10:15.633Z,85.19
2019-02-19T17:17:02.667Z,86.09
2019-02-19T17:23:45.569Z,86.71
2019-02-19T17:30:38.758Z,87.25
2019-02-19T17:41:17.834Z,88.35
2019-02-19T17:48:20.961Z,89.31
2019-02-19T17:55:05.264Z,90.18
2019-02-19T18:01:54.029Z,90.76
2019-02-19T18:08:42.355Z,91.33
2019-02-19T18:15:36.118Z,91.34
2019-02-19T18:22:15.404Z,92.02
2019-02-19T18:28:42.977Z,92.08
2019-02-19T18:34:36.465Z,92.52
2019-02-19T18:41:02.572Z,92.64
2019-02-19T18:47:28.160Z,92.71
2019-02-19T18:53:57.236Z,93.30
2019-02-19T19:00:26.821Z,94.06
2019-02-19T19:07:06.047Z,94.51
2019-02-19T19:13:33.889Z,94.93
2019-02-19T19:20:02.409Z,94.34
2019-02-19T19:26:28.555Z,94.71
2019-02-19T19:32:56.149Z,95.23
2019-02-19T19:39:25.248Z,95.17
2019-02-19T19:49:13.877Z,94.93
2019-02-19T19:55:40.903Z,95.39
2019-02-19T20:02:08.441Z,95.58
2019-02-19T20:08:34.573Z,95.49
2019-02-19T20:15:15.547Z,95.75
2019-02-19T20:21:44.398Z,96.14
2019-02-19T20:28:11.911Z,96.29
2019-02-19T20:34:13.613Z,96.73
2019-02-19T20:40:37.395Z,96.21
2019-02-19T20:50:53.445Z,96.83
2019-02-19T20:57:19.298Z,96.70
2019-02-19T21:03:45.144Z,97.65
2019-02-19T21:10:28.344Z,97.55
2019-02-19T21:16:53.157Z,96.93
2019-02-19T21:23:20.995Z,97.10
2019-02-19T21:29:59.943Z,97.47
2019-02-19T21:35:59.319Z,97.86
2019-02-19T21:42:24.331Z,97.56
2019-02-19T21:52:28.030Z,98.42
2019-02-19T21:58:57.145Z,98.47
2019-02-19T22:05:39.879Z,98.42
2019-02-19T22:12:07.780Z,98.15
2019-02-19T22:18:34.805Z,98.79
2019-02-19T22:25:15.444Z,97.95
2019-02-19T22:31:43.345Z,98.18
2019-02-19T22:38:09.437Z,98.42
2019-02-19T22:44:39.966Z,98.34
2019-02-19T22:54:31.023Z,98.01
2019-02-19T23:01:32.101Z,98.22
2019-02-19T23:07:58.144Z,97.89
2019-02-19T23:14:23.797Z,98.20
2019-02-19T23:20:56.865Z,97.88
2019-02-19T23:27:35.806Z,98.22
2019-02-19T23:33:32.333Z,97.91
2019-02-19T23:39:58.155Z,97.72
2019-02-19T23:46:23.626Z,97.83
2019-02-19T23:55:58.310Z,97.99
